Terminal Aerodrome Forecast
Issued by NWS Amarillo, TX

Home | Current Version | Previous Version | Text Only | Print | Product List | Glossary On
Versions: 1 2 3 4 5 6 7 8 9 10 11 12 13 14
000
FTUS44 KAMA 201700
TAFGUY
TAF
KGUY 201739Z 2018/2118 19014G24KT P6SM FEW080
     FM202100 20012KT P6SM VCTS BKN060CB
     FM210000 26010KT P6SM BKN060
     FM211400 01015G22KT P6SM SCT080=

USA.gov is the U.S. government's official web portal to all federal, state and local government web resources and services.